Van Etten, New York
Current Conditions -  °F | °C
As of 2:53 PM on Saturday 25 Oct 2014 (Local Time) from KELM Reporting Station
Overcast Overcast  
Wind Chill: 67°   Ceiling: 6500
Heat Index: 67°   Visibility: 10mi
Dew Point: 43°   Wind: 14mph
Humidity: 42%   Direction: 260°W
Pressure: 29.64"   Gusts: NA
Location:  42.2°N, 76.55°W
Report Text: KELM 251853Z 26012KT 10SM OVC065 19/06 A2964 RMK AO2 SLP036 T01940061
Loading
Personal Weather Stations






























Interactive Weather Map
Tropical Storm Tracking
New forecast layout! Learn more

10-Day Weather Forecast

Advertisements
Track Severe Weather on mobile